createdAt,value
2022-12-15T00:00:30.735Z,100320.16
2022-12-15T00:04:09.827Z,100319.31
2022-12-15T00:07:50.214Z,100333.97
2022-12-15T00:11:29.163Z,100336.59
2022-12-15T00:15:08.548Z,100328.88
2022-12-15T00:18:47.500Z,100334.88
2022-12-15T00:22:26.206Z,100332.31
2022-12-15T00:26:06.723Z,100342.66
2022-12-15T00:29:45.485Z,100342.66
2022-12-15T00:33:29.894Z,100340.97
2022-12-15T00:37:09.275Z,100353.06
2022-12-15T00:40:30.736Z,100347.09
2022-12-15T00:43:53.867Z,100341.09
2022-12-15T00:47:15.403Z,100338.56
2022-12-15T00:50:54.382Z,100342.00
2022-12-15T00:54:33.549Z,100335.97
2022-12-15T00:58:13.085Z,100338.59
2022-12-15T01:01:53.675Z,100341.19
2022-12-15T01:05:32.976Z,100333.50
2022-12-15T01:09:11.770Z,100341.28
2022-12-15T01:12:50.703Z,100348.22
2022-12-15T01:16:30.523Z,100350.81
2022-12-15T01:20:10.801Z,100354.25
2022-12-15T01:23:33.288Z,100350.91
2022-12-15T01:26:56.178Z,100355.22
2022-12-15T01:30:21.162Z,100354.38
2022-12-15T01:33:43.778Z,100352.66
2022-12-15T01:37:06.815Z,100347.50
2022-12-15T01:40:46.227Z,100343.22
2022-12-15T01:44:23.696Z,100339.75
2022-12-15T01:47:45.511Z,100341.50
2022-12-15T01:51:12.471Z,100350.09
2022-12-15T01:54:40.106Z,100345.81
2022-12-15T01:58:05.131Z,100350.97
2022-12-15T02:01:27.216Z,100347.56
2022-12-15T02:04:50.855Z,100360.50
2022-12-15T02:08:13.062Z,100363.94
2022-12-15T02:11:49.157Z,100376.03
2022-12-15T02:15:20.329Z,100374.31
2022-12-15T02:18:52.463Z,100375.22
2022-12-15T02:22:27.976Z,100380.41
2022-12-15T02:26:11.034Z,100387.31
2022-12-15T02:29:58.885Z,100389.94
2022-12-15T02:33:27.330Z,100392.53
2022-12-15T02:36:52.800Z,100390.78
2022-12-15T02:40:14.429Z,100398.56
2022-12-15T02:43:39.984Z,100404.56
2022-12-15T02:47:28.154Z,100414.88
2022-12-15T02:51:06.945Z,100424.31
2022-12-15T02:54:47.947Z,100432.88
2022-12-15T02:58:16.257Z,100423.44
2022-12-15T03:01:42.798Z,100441.50
2022-12-15T03:05:05.770Z,100436.34
2022-12-15T03:08:28.917Z,100437.22
2022-12-15T03:11:50.973Z,100430.38
2022-12-15T03:15:12.937Z,100428.69
2022-12-15T03:18:34.402Z,100433.00
2022-12-15T03:21:56.130Z,100447.63
2022-12-15T03:25:19.514Z,100435.56
2022-12-15T03:28:41.165Z,100439.91
2022-12-15T03:32:03.322Z,100428.81
2022-12-15T03:35:25.290Z,100430.56
2022-12-15T03:38:46.723Z,100422.81
2022-12-15T03:42:10.204Z,100417.66
2022-12-15T03:45:32.250Z,100418.53
2022-12-15T03:48:54.072Z,100421.09
2022-12-15T03:52:15.846Z,100417.63
2022-12-15T03:55:37.705Z,100415.97
2022-12-15T03:59:00.583Z,100428.00
2022-12-15T04:02:22.679Z,100439.19
2022-12-15T04:05:44.692Z,100442.63
2022-12-15T04:09:06.504Z,100444.31
2022-12-15T04:12:28.282Z,100459.72
2022-12-15T04:15:51.569Z,100462.28
2022-12-15T04:19:30.566Z,100472.59
2022-12-15T04:22:52.727Z,100469.19
2022-12-15T04:26:32.667Z,100475.16
2022-12-15T04:30:11.440Z,100478.56
2022-12-15T04:33:52.599Z,100476.84
2022-12-15T04:37:33.066Z,100468.28
2022-12-15T04:41:12.165Z,100470.00
2022-12-15T04:44:51.457Z,100489.78
2022-12-15T04:48:31.287Z,100482.03
2022-12-15T04:52:11.736Z,100475.16
2022-12-15T04:55:53.669Z,100489.81
2022-12-15T04:59:32.986Z,100502.69
2022-12-15T05:03:17.930Z,100510.44
2022-12-15T05:06:57.290Z,100521.66
2022-12-15T05:10:37.726Z,100522.50
2022-12-15T05:14:16.642Z,100515.63
2022-12-15T05:17:55.704Z,100519.03
2022-12-15T05:21:34.595Z,100525.09
2022-12-15T05:25:13.840Z,100518.22
2022-12-15T05:28:54.418Z,100519.06
2022-12-15T05:32:16.058Z,100531.13
2022-12-15T05:35:37.753Z,100526.00
2022-12-15T05:38:59.572Z,100532.03
2022-12-15T05:42:21.596Z,100528.59
2022-12-15T05:45:44.703Z,100541.47
2022-12-15T05:49:07.494Z,100543.19
2022-12-15T05:52:29.280Z,100548.34
2022-12-15T05:55:50.980Z,100556.91
2022-12-15T05:59:13.249Z,100560.34
2022-12-15T06:02:36.372Z,100569.78
2022-12-15T06:05:58.245Z,100577.50
2022-12-15T06:09:20.189Z,100580.09
2022-12-15T06:12:42.296Z,100573.19
2022-12-15T06:16:06.513Z,100582.63
2022-12-15T06:19:29.473Z,100604.06
2022-12-15T06:22:51.219Z,100599.75
2022-12-15T06:26:16.130Z,100608.34
2022-12-15T06:29:37.961Z,100597.13
2022-12-15T06:32:59.855Z,100590.25
2022-12-15T06:36:24.842Z,100592.78
2022-12-15T06:39:46.708Z,100582.47
2022-12-15T06:43:09.334Z,100578.13
2022-12-15T06:46:32.792Z,100587.56
2022-12-15T06:49:55.429Z,100599.56
2022-12-15T06:53:20.233Z,100604.66
2022-12-15T06:56:42.415Z,100608.06
2022-12-15T07:00:06.263Z,100614.88
2022-12-15T07:03:28.578Z,100608.81
2022-12-15T07:06:51.348Z,100605.31
2022-12-15T07:10:14.827Z,100601.88
2022-12-15T07:13:38.351Z,100613.84
2022-12-15T07:17:00.426Z,100623.25
2022-12-15T07:20:27.114Z,100631.75
2022-12-15T07:23:55.740Z,100646.25
2022-12-15T07:27:19.447Z,100650.44
2022-12-15T07:30:41.089Z,100658.97
2022-12-15T07:34:04.918Z,100664.06
2022-12-15T07:37:26.468Z,100667.47
2022-12-15T07:40:49.178Z,100670.00
2022-12-15T07:44:12.502Z,100680.25
2022-12-15T07:47:34.686Z,100683.63
2022-12-15T07:51:07.236Z,100691.25
2022-12-15T07:54:29.405Z,100688.66
2022-12-15T07:57:51.020Z,100685.94
2022-12-15T08:01:15.563Z,100702.34
2022-12-15T08:04:37.394Z,100703.13
2022-12-15T08:07:59.361Z,100702.19
2022-12-15T08:11:24.586Z,100703.91
2022-12-15T08:14:46.302Z,100709.81
2022-12-15T08:18:13.439Z,100708.91
2022-12-15T08:21:35.442Z,100714.78
2022-12-15T08:24:56.844Z,100719.06
2022-12-15T08:28:19.547Z,100709.50
2022-12-15T08:31:41.817Z,100709.41
2022-12-15T08:35:19.921Z,100716.22
2022-12-15T08:38:48.429Z,100719.59
2022-12-15T08:42:10.417Z,100721.25
2022-12-15T08:45:32.403Z,100721.22
2022-12-15T08:48:54.582Z,100729.78
2022-12-15T08:52:17.722Z,100736.63
2022-12-15T08:55:40.618Z,100739.06
2022-12-15T08:59:03.339Z,100742.53
2022-12-15T09:02:25.138Z,100751.97
2022-12-15T09:05:46.943Z,100742.44
2022-12-15T09:09:14.635Z,100748.41
2022-12-15T09:12:36.497Z,100755.22
2022-12-15T09:16:13.999Z,100756.88
2022-12-15T09:19:36.575Z,100761.19
2022-12-15T09:22:58.988Z,100766.25
2022-12-15T09:26:24.278Z,100761.91
2022-12-15T09:29:46.323Z,100764.41
2022-12-15T09:33:08.344Z,100761.66
2022-12-15T09:36:32.765Z,100768.47
2022-12-15T09:39:54.816Z,100768.41
2022-12-15T09:43:42.863Z,100762.31
2022-12-15T09:47:17.483Z,100757.00
2022-12-15T09:50:42.012Z,100773.31
2022-12-15T09:54:04.384Z,100761.13
2022-12-15T09:57:41.526Z,100768.69
2022-12-15T10:01:14.488Z,100764.31
2022-12-15T10:04:44.799Z,100767.69
2022-12-15T10:08:07.275Z,100771.88
2022-12-15T10:11:50.247Z,100766.56
2022-12-15T10:15:24.078Z,100757.84
2022-12-15T10:19:01.190Z,100764.59
2022-12-15T10:22:26.814Z,100761.91
2022-12-15T10:25:51.819Z,100759.09
2022-12-15T10:29:37.560Z,100753.78
2022-12-15T10:33:03.753Z,100749.28
2022-12-15T10:36:27.051Z,100742.16
2022-12-15T10:39:51.516Z,100740.34
2022-12-15T10:43:16.372Z,100747.91
2022-12-15T10:46:37.995Z,100745.16
2022-12-15T10:50:24.253Z,100756.28
2022-12-15T10:53:51.257Z,100764.75
2022-12-15T10:57:18.691Z,100758.59
2022-12-15T11:00:41.051Z,100756.72
2022-12-15T11:04:02.919Z,100760.06
2022-12-15T11:07:26.328Z,100769.44
2022-12-15T11:11:11.174Z,100771.03
2022-12-15T11:14:43.921Z,100775.16
2022-12-15T11:18:12.834Z,100782.84
2022-12-15T11:21:40.752Z,100782.63
2022-12-15T11:25:13.357Z,100778.16
2022-12-15T11:28:43.935Z,100779.75
2022-12-15T11:32:07.768Z,100783.03
2022-12-15T11:35:43.957Z,100782.69
2022-12-15T11:39:14.211Z,100778.97
2022-12-15T11:42:47.616Z,100784.06
2022-12-15T11:46:23.891Z,100790.16
2022-12-15T11:50:17.840Z,100794.31
2022-12-15T11:54:11.296Z,100791.63
2022-12-15T11:57:53.219Z,100786.31
2022-12-15T12:01:34.762Z,100792.22
2022-12-15T12:05:15.550Z,100790.28
2022-12-15T12:09:01.741Z,100794.44
2022-12-15T12:12:30.458Z,100789.09
2022-12-15T12:15:58.910Z,100781.03
2022-12-15T12:19:26.499Z,100787.81
2022-12-15T12:22:56.135Z,100791.06
2022-12-15T12:26:24.491Z,100797.00
2022-12-15T12:29:50.159Z,100792.56
2022-12-15T12:33:21.643Z,100783.75
2022-12-15T12:36:48.930Z,100789.66
2022-12-15T12:40:20.019Z,100786.91
2022-12-15T12:43:45.419Z,100792.88
2022-12-15T12:47:20.548Z,100798.78
2022-12-15T12:50:42.639Z,100797.81
2022-12-15T12:54:40.370Z,100790.78
2022-12-15T12:58:02.362Z,100783.59
2022-12-15T13:01:28.781Z,100790.41
2022-12-15T13:04:52.831Z,100793.81
2022-12-15T13:08:34.153Z,100796.41
2022-12-15T13:12:15.022Z,100792.81
2022-12-15T13:15:45.273Z,100797.94
2022-12-15T13:19:09.446Z,100806.63
2022-12-15T13:22:34.528Z,100796.13
2022-12-15T13:26:12.568Z,100789.13
2022-12-15T13:29:37.387Z,100795.16
2022-12-15T13:33:18.525Z,100795.16
2022-12-15T13:36:58.570Z,100810.84
2022-12-15T13:40:36.726Z,100803.91
2022-12-15T13:44:01.539Z,100817.78
2022-12-15T13:47:27.469Z,100822.16
2022-12-15T13:50:57.379Z,100823.03
2022-12-15T13:54:24.903Z,100833.53
2022-12-15T13:57:56.634Z,100829.22
2022-12-15T14:01:32.700Z,100834.47
2022-12-15T14:05:15.254Z,100829.34
2022-12-15T14:08:37.088Z,100828.50
2022-12-15T14:12:02.705Z,100832.03
2022-12-15T14:15:29.304Z,100824.31
2022-12-15T14:19:05.951Z,100823.56
2022-12-15T14:22:30.944Z,100815.78
2022-12-15T14:25:58.516Z,100820.22
2022-12-15T14:29:20.980Z,100825.53
2022-12-15T14:32:45.327Z,100824.78
2022-12-15T14:36:11.810Z,100830.09
2022-12-15T14:39:40.814Z,100825.88
2022-12-15T14:43:02.444Z,100824.22
2022-12-15T14:46:28.450Z,100819.25
2022-12-15T14:49:51.134Z,100825.38
2022-12-15T14:53:16.952Z,100824.63
2022-12-15T14:56:40.870Z,100828.25
2022-12-15T15:00:26.704Z,100828.44
2022-12-15T15:03:57.560Z,100838.97
2022-12-15T15:07:20.871Z,100839.06
2022-12-15T15:10:44.188Z,100839.09
2022-12-15T15:14:12.412Z,100832.16
2022-12-15T15:17:38.579Z,100832.34
2022-12-15T15:21:03.340Z,100841.28
2022-12-15T15:24:30.875Z,100835.28
2022-12-15T15:27:52.443Z,100834.53
2022-12-15T15:31:32.678Z,100844.22
2022-12-15T15:34:58.495Z,100852.97
2022-12-15T15:38:27.068Z,100847.00
2022-12-15T15:41:48.932Z,100856.53
2022-12-15T15:45:13.753Z,100853.16
2022-12-15T15:48:40.775Z,100855.00
2022-12-15T15:52:02.980Z,100849.88
2022-12-15T15:55:28.775Z,100850.84
2022-12-15T15:58:50.208Z,100845.72
2022-12-15T16:02:14.509Z,100844.94
2022-12-15T16:05:38.051Z,100847.69
2022-12-15T16:09:00.202Z,100841.75
2022-12-15T16:12:27.709Z,100845.34
2022-12-15T16:15:50.560Z,100837.69
2022-12-15T16:19:13.141Z,100839.59
2022-12-15T16:22:36.361Z,100831.97
2022-12-15T16:26:00.276Z,100837.31
2022-12-15T16:29:22.457Z,100837.34
2022-12-15T16:32:44.208Z,100842.69
2022-12-15T16:36:11.627Z,100848.84
2022-12-15T16:39:36.840Z,100858.44
2022-12-15T16:43:01.310Z,100855.97
2022-12-15T16:46:23.027Z,100862.16
2022-12-15T16:49:45.271Z,100869.22
2022-12-15T16:53:11.214Z,100871.09
2022-12-15T16:56:34.502Z,100867.69
2022-12-15T16:59:56.740Z,100863.44
2022-12-15T17:03:23.209Z,100877.47
2022-12-15T17:06:45.480Z,100881.91
2022-12-15T17:10:08.478Z,100886.41
2022-12-15T17:13:41.948Z,100880.41
2022-12-15T17:17:13.598Z,100885.66
2022-12-15T17:20:35.073Z,100890.91
2022-12-15T17:24:00.018Z,100889.19
2022-12-15T17:27:27.980Z,100881.41
2022-12-15T17:30:51.993Z,100886.66
2022-12-15T17:34:27.118Z,100889.28
2022-12-15T17:37:48.898Z,100899.66
2022-12-15T17:41:35.128Z,100906.56
2022-12-15T17:44:55.648Z,100913.41
2022-12-15T17:48:19.230Z,100914.22
2022-12-15T17:51:42.051Z,100924.63
2022-12-15T17:55:05.630Z,100928.94
2022-12-15T17:58:28.163Z,100934.19
2022-12-15T18:01:49.924Z,100932.50
2022-12-15T18:05:16.066Z,100935.16
2022-12-15T18:08:38.060Z,100935.22
2022-12-15T18:11:59.666Z,100939.56
2022-12-15T18:15:23.385Z,100950.88
2022-12-15T18:18:46.628Z,100948.31
2022-12-15T18:22:15.226Z,100955.34
2022-12-15T18:25:36.814Z,100969.22
2022-12-15T18:28:58.682Z,100966.66
2022-12-15T18:32:23.889Z,100966.72
2022-12-15T18:35:46.865Z,100971.06
2022-12-15T18:39:18.202Z,100958.19
2022-12-15T18:42:40.507Z,100953.91
2022-12-15T18:46:02.617Z,100956.53
2022-12-15T18:49:24.501Z,100956.53
2022-12-15T18:52:46.567Z,100971.25
2022-12-15T18:56:09.952Z,100973.91
2022-12-15T18:59:31.687Z,100977.41
2022-12-15T19:02:55.131Z,100967.97
2022-12-15T19:06:26.007Z,100968.13
2022-12-15T19:09:47.971Z,100966.50
2022-12-15T19:13:15.118Z,100980.38
2022-12-15T19:16:50.543Z,100995.97
2022-12-15T19:20:35.942Z,100981.31
2022-12-15T19:23:57.992Z,100976.19
2022-12-15T19:27:23.248Z,100977.97
2022-12-15T19:30:47.403Z,100974.53
2022-12-15T19:34:09.365Z,100981.47
2022-12-15T19:37:32.061Z,100965.97
2022-12-15T19:40:55.408Z,100969.44
2022-12-15T19:44:17.447Z,100958.22
2022-12-15T19:47:40.550Z,100962.63
2022-12-15T19:51:02.477Z,100975.59
2022-12-15T19:54:25.058Z,100975.59
2022-12-15T19:57:46.600Z,100973.88
2022-12-15T20:01:12.245Z,100970.44
2022-12-15T20:04:35.778Z,100974.00
2022-12-15T20:07:57.748Z,100980.06
2022-12-15T20:11:21.657Z,100977.59
2022-12-15T20:14:43.398Z,100977.59
2022-12-15T20:18:05.251Z,100981.94
2022-12-15T20:21:32.453Z,100979.31
2022-12-15T20:24:54.100Z,100977.66
2022-12-15T20:28:21.807Z,100981.16
2022-12-15T20:31:43.576Z,100974.25
2022-12-15T20:35:06.000Z,100982.94
2022-12-15T20:38:34.231Z,100982.97
2022-12-15T20:41:57.014Z,100989.03
2022-12-15T20:45:20.784Z,100984.75
2022-12-15T20:48:43.112Z,100984.84
2022-12-15T20:52:05.110Z,100995.22
2022-12-15T20:55:28.153Z,101001.25
2022-12-15T20:58:50.703Z,101007.25
2022-12-15T21:02:19.502Z,101009.81
2022-12-15T21:05:41.431Z,101008.09
2022-12-15T21:09:03.222Z,101014.19
2022-12-15T21:12:28.610Z,101012.50
2022-12-15T21:15:50.250Z,101011.66
2022-12-15T21:19:21.730Z,101001.31
2022-12-15T21:22:44.390Z,100997.03
2022-12-15T21:26:06.588Z,101007.44
2022-12-15T21:29:30.781Z,101008.34
2022-12-15T21:32:52.555Z,101023.06
2022-12-15T21:36:15.208Z,101023.09
2022-12-15T21:39:40.362Z,101027.41
2022-12-15T21:43:05.872Z,101030.03
2022-12-15T21:46:30.046Z,101026.63
2022-12-15T21:49:52.964Z,101033.53
2022-12-15T21:53:18.488Z,101030.97
2022-12-15T21:56:40.810Z,101032.66
2022-12-15T22:00:02.765Z,101032.69
2022-12-15T22:03:37.190Z,101029.28
2022-12-15T22:06:58.702Z,101035.28
2022-12-15T22:10:21.142Z,101043.09
2022-12-15T22:13:43.545Z,101045.72
2022-12-15T22:17:17.195Z,101050.06
2022-12-15T22:20:42.472Z,101051.00
2022-12-15T22:24:05.404Z,101057.91
2022-12-15T22:27:27.821Z,101060.53
2022-12-15T22:30:50.434Z,101051.03
2022-12-15T22:34:18.209Z,101051.06
2022-12-15T22:37:41.561Z,101046.75
2022-12-15T22:41:04.468Z,101041.56
2022-12-15T22:44:28.370Z,101034.66
2022-12-15T22:47:51.183Z,101038.13
2022-12-15T22:51:16.513Z,101037.34
2022-12-15T22:54:46.327Z,101033.03
2022-12-15T22:58:11.834Z,101028.75
2022-12-15T23:01:33.499Z,101032.22
2022-12-15T23:04:55.237Z,101031.34
2022-12-15T23:08:17.122Z,101031.34
2022-12-15T23:11:41.435Z,101029.59
2022-12-15T23:15:32.014Z,101024.38
2022-12-15T23:18:55.151Z,101027.84
2022-12-15T23:22:16.648Z,101029.59
2022-12-15T23:25:38.669Z,101023.59
2022-12-15T23:29:01.425Z,101023.63
2022-12-15T23:32:23.390Z,101023.66
2022-12-15T23:35:45.698Z,101021.06
2022-12-15T23:39:06.842Z,101023.66
2022-12-15T23:42:28.611Z,101027.13
2022-12-15T23:45:59.082Z,101017.63
2022-12-15T23:49:20.803Z,101025.44
2022-12-15T23:52:42.863Z,101029.78
2022-12-15T23:56:09.592Z,101034.06
2022-12-15T23:59:31.410Z,101028.94
